Terminal Aerodrome Forecast
Issued by NWS Austin/San Antonio, TX

Home | Current Version | Previous Version | Text Only | Print | Product List | Glossary On
Versions: 1 2 3 4 5 6 7 8 9 10 11 12 13 14 15 16 17 18 19
000
FTUS44 KEWX 050534
TAFAUS
TAF
KAUS 050534Z 0506/0612 17010KT P6SM FEW150
     FM050700 17005KT P6SM OVC015
     FM051000 17005KT P6SM OVC008
     FM051400 18005KT P6SM BKN015
     FM051800 17015KT P6SM SCT035
     FM060700 17010KT P6SM OVC015
     FM061000 17010KT P6SM OVC008=

USA.gov is the U.S. government's official web portal to all federal, state and local government web resources and services.